createdAt,value
2023-11-19T00:01:48.485Z,5.80
2023-11-19T00:04:33.789Z,5.90
2023-11-19T00:07:21.239Z,5.90
2023-11-19T00:10:08.398Z,5.80
2023-11-19T00:12:53.860Z,5.90
2023-11-19T00:15:39.799Z,5.90
2023-11-19T00:18:25.258Z,6.00
2023-11-19T00:21:11.440Z,5.90
2023-11-19T00:23:58.851Z,5.90
2023-11-19T00:26:44.338Z,6.00
2023-11-19T00:29:29.464Z,6.00
2023-11-19T00:32:15.007Z,6.00
2023-11-19T00:35:00.776Z,6.10
2023-11-19T00:37:47.323Z,6.00
2023-11-19T00:40:33.355Z,5.90
2023-11-19T00:43:20.018Z,6.00
2023-11-19T00:46:09.044Z,6.00
2023-11-19T00:48:56.354Z,6.00
2023-11-19T00:51:42.538Z,6.10
2023-11-19T00:54:28.570Z,6.10
2023-11-19T00:57:14.980Z,6.20
2023-11-19T01:00:01.385Z,6.10
2023-11-19T01:02:48.409Z,6.10
2023-11-19T01:05:34.778Z,6.20
2023-11-19T01:08:20.168Z,6.30
2023-11-19T01:11:05.777Z,6.30
2023-11-19T01:13:51.985Z,6.10
2023-11-19T01:16:37.459Z,6.20
2023-11-19T01:19:24.292Z,6.20
2023-11-19T01:22:09.621Z,6.30
2023-11-19T01:24:55.482Z,6.40
2023-11-19T01:27:40.710Z,6.50
2023-11-19T01:30:26.268Z,6.50
2023-11-19T01:33:11.592Z,6.40
2023-11-19T01:35:59.762Z,6.40
2023-11-19T01:38:45.722Z,6.40
2023-11-19T01:41:34.921Z,6.30
2023-11-19T01:44:20.360Z,6.30
2023-11-19T01:47:07.013Z,6.40
2023-11-19T01:49:52.755Z,6.30
2023-11-19T01:52:39.040Z,6.40
2023-11-19T01:55:26.704Z,6.50
2023-11-19T01:58:13.526Z,6.60
2023-11-19T02:00:59.272Z,6.50
2023-11-19T02:03:44.741Z,6.60
2023-11-19T02:06:30.921Z,6.60
2023-11-19T02:09:18.075Z,6.60
2023-11-19T02:12:03.934Z,6.60
2023-11-19T02:14:49.204Z,6.60
2023-11-19T02:17:35.612Z,6.60
2023-11-19T02:20:21.565Z,6.70
2023-11-19T02:23:07.290Z,6.70
2023-11-19T02:26:29.935Z,6.80
2023-11-19T02:29:15.065Z,6.80
2023-11-19T02:32:00.969Z,6.80
2023-11-19T02:34:46.121Z,6.80
2023-11-19T02:37:31.574Z,6.80
2023-11-19T02:40:18.411Z,6.90
2023-11-19T02:43:06.193Z,6.90
2023-11-19T02:45:51.836Z,6.80
2023-11-19T02:48:37.237Z,6.80
2023-11-19T02:51:23.030Z,6.80
2023-11-19T02:54:08.828Z,6.90
2023-11-19T02:57:00.585Z,6.90
2023-11-19T02:59:46.013Z,7.00
2023-11-19T03:02:35.252Z,7.00
2023-11-19T03:05:21.442Z,6.90
2023-11-19T03:08:06.441Z,6.80
2023-11-19T03:10:52.215Z,6.80
2023-11-19T03:13:37.263Z,6.70
2023-11-19T03:16:22.845Z,6.70
2023-11-19T03:19:08.397Z,6.60
2023-11-19T03:21:55.131Z,6.90
2023-11-19T03:24:40.502Z,6.90
2023-11-19T03:27:25.836Z,6.90
2023-11-19T03:30:12.005Z,7.10
2023-11-19T03:32:58.082Z,7.10
2023-11-19T03:35:43.376Z,7.10
2023-11-19T03:38:28.869Z,7.20
2023-11-19T03:41:15.340Z,7.10
2023-11-19T03:44:00.798Z,7.00
2023-11-19T03:46:47.324Z,7.10
2023-11-19T03:49:33.417Z,7.10
2023-11-19T03:52:20.777Z,7.10
2023-11-19T03:55:09.553Z,7.20
2023-11-19T03:57:55.037Z,7.10
2023-11-19T04:00:41.917Z,7.20
2023-11-19T04:03:27.262Z,7.30
2023-11-19T04:06:12.619Z,7.30
2023-11-19T04:08:58.255Z,7.20
2023-11-19T04:11:43.851Z,7.30
2023-11-19T04:14:29.245Z,7.40
2023-11-19T04:17:14.892Z,7.50
2023-11-19T04:20:00.389Z,7.30
2023-11-19T04:22:45.780Z,7.30
2023-11-19T04:25:31.254Z,7.30
2023-11-19T04:28:16.608Z,7.30
2023-11-19T04:31:02.206Z,7.40
2023-11-19T04:33:48.240Z,7.40
2023-11-19T04:36:34.237Z,7.50
2023-11-19T04:39:20.068Z,7.50
2023-11-19T04:42:05.690Z,7.50
2023-11-19T04:44:51.318Z,7.50
2023-11-19T04:47:36.823Z,7.60
2023-11-19T04:50:22.719Z,7.50
2023-11-19T04:53:07.986Z,7.50
2023-11-19T04:55:53.451Z,7.50
2023-11-19T04:58:39.056Z,7.40
2023-11-19T05:01:24.375Z,7.40
2023-11-19T05:04:10.250Z,7.40
2023-11-19T05:06:56.497Z,7.40
2023-11-19T05:09:41.821Z,7.30
2023-11-19T05:12:27.707Z,7.40
2023-11-19T05:15:13.234Z,7.50
2023-11-19T05:17:58.961Z,7.50
2023-11-19T05:20:44.417Z,7.50
2023-11-19T05:23:29.709Z,7.40
2023-11-19T05:26:22.572Z,7.50
2023-11-19T05:29:07.739Z,7.50
2023-11-19T05:31:52.868Z,7.60
2023-11-19T05:34:51.620Z,7.60
2023-11-19T05:37:37.301Z,7.60
2023-11-19T05:40:22.700Z,7.60
2023-11-19T05:43:08.206Z,7.60
2023-11-19T05:45:53.749Z,7.70
2023-11-19T05:48:39.364Z,7.60
2023-11-19T05:51:25.852Z,7.70
2023-11-19T05:54:11.788Z,7.80
2023-11-19T05:56:58.466Z,7.90
2023-11-19T05:59:44.834Z,7.80
2023-11-19T06:02:30.475Z,7.70
2023-11-19T06:05:15.934Z,7.70
2023-11-19T06:08:01.299Z,7.80
2023-11-19T06:10:51.667Z,7.90
2023-11-19T06:13:37.590Z,7.90
2023-11-19T06:16:22.997Z,7.90
2023-11-19T06:19:08.961Z,7.80
2023-11-19T06:21:54.338Z,7.80
2023-11-19T06:24:41.895Z,7.90
2023-11-19T06:27:27.806Z,7.90
2023-11-19T06:30:13.443Z,8.00
2023-11-19T06:32:59.298Z,8.00
2023-11-19T06:35:44.914Z,8.10
2023-11-19T06:38:30.225Z,8.10
2023-11-19T06:41:15.755Z,8.10
2023-11-19T06:44:01.135Z,8.20
2023-11-19T06:46:47.117Z,8.40
2023-11-19T06:49:32.626Z,8.40
2023-11-19T06:52:18.287Z,8.30
2023-11-19T06:57:52.505Z,8.40
2023-11-19T07:00:38.233Z,8.40
2023-11-19T07:03:24.012Z,8.40
2023-11-19T07:06:09.481Z,8.30
2023-11-19T07:08:54.932Z,8.30
2023-11-19T07:11:42.543Z,8.30
2023-11-19T07:14:28.033Z,8.30
2023-11-19T07:17:13.470Z,8.40
2023-11-19T07:20:01.644Z,8.50
2023-11-19T07:22:46.951Z,8.50
2023-11-19T07:25:32.555Z,8.50
2023-11-19T07:28:18.635Z,8.60
2023-11-19T07:31:04.181Z,8.60
2023-11-19T07:33:50.313Z,8.70
2023-11-19T07:36:35.512Z,8.60
2023-11-19T07:39:22.399Z,8.70
2023-11-19T07:42:08.341Z,8.70
2023-11-19T07:44:55.531Z,8.70
2023-11-19T07:47:41.286Z,8.80
2023-11-19T07:50:26.446Z,8.80
2023-11-19T07:53:13.631Z,8.80
2023-11-19T07:56:00.747Z,8.80
2023-11-19T07:58:45.879Z,8.80
2023-11-19T08:01:31.470Z,8.90
2023-11-19T08:04:17.134Z,8.90
2023-11-19T08:07:02.722Z,8.80
2023-11-19T08:09:48.232Z,8.90
2023-11-19T08:12:33.555Z,8.90
2023-11-19T08:15:32.226Z,8.90
2023-11-19T08:18:17.673Z,9.00
2023-11-19T08:21:05.825Z,9.10
2023-11-19T08:23:51.107Z,9.20
2023-11-19T08:26:36.516Z,9.20
2023-11-19T08:29:22.526Z,9.20
2023-11-19T08:32:08.208Z,9.30
2023-11-19T08:34:54.203Z,9.40
2023-11-19T08:37:39.776Z,9.50
2023-11-19T08:40:26.936Z,9.50
2023-11-19T08:43:12.158Z,9.40
2023-11-19T08:45:57.788Z,9.50
2023-11-19T08:48:43.119Z,9.60
2023-11-19T08:51:29.469Z,9.70
2023-11-19T08:54:15.070Z,9.80
2023-11-19T08:57:01.499Z,9.90
2023-11-19T08:59:47.108Z,9.90
2023-11-19T09:02:33.594Z,10.30
2023-11-19T09:05:19.319Z,9.90
2023-11-19T09:08:05.397Z,9.90
2023-11-19T09:10:50.539Z,10.00
2023-11-19T09:13:50.412Z,10.10
2023-11-19T09:16:45.165Z,10.20
2023-11-19T09:19:40.215Z,10.30
2023-11-19T09:22:39.199Z,10.30
2023-11-19T09:25:25.245Z,10.40
2023-11-19T09:28:10.871Z,10.40
2023-11-19T09:30:56.301Z,10.50
2023-11-19T09:33:42.234Z,10.50
2023-11-19T09:36:27.961Z,10.50
2023-11-19T09:39:18.872Z,10.50
2023-11-19T09:42:04.523Z,10.70
2023-11-19T09:44:50.588Z,10.70
2023-11-19T09:47:35.983Z,10.90
2023-11-19T09:50:21.789Z,11.00
2023-11-19T09:53:07.560Z,11.20
2023-11-19T09:55:54.459Z,11.30
2023-11-19T09:58:41.092Z,11.40
2023-11-19T10:01:29.247Z,11.30
2023-11-19T10:04:18.162Z,11.40
2023-11-19T10:07:03.692Z,11.30
2023-11-19T10:09:49.264Z,11.30
2023-11-19T10:12:34.689Z,11.40
2023-11-19T10:15:27.960Z,11.50
2023-11-19T10:18:15.723Z,11.40
2023-11-19T10:21:01.204Z,11.50
2023-11-19T10:23:54.971Z,11.50
2023-11-19T10:26:43.101Z,11.50
2023-11-19T10:29:30.131Z,11.60
2023-11-19T10:32:25.449Z,11.60
2023-11-19T10:35:14.726Z,11.60
2023-11-19T10:38:01.873Z,11.50
2023-11-19T10:40:47.328Z,11.60
2023-11-19T10:43:32.732Z,11.70
2023-11-19T10:46:22.114Z,11.60
2023-11-19T10:49:08.969Z,11.70
2023-11-19T10:51:57.789Z,11.60
2023-11-19T10:54:50.290Z,11.60
2023-11-19T10:57:38.017Z,11.60
2023-11-19T11:00:25.774Z,11.70
2023-11-19T11:03:21.638Z,11.70
2023-11-19T11:06:07.280Z,11.70
2023-11-19T11:08:53.021Z,11.70
2023-11-19T11:11:39.332Z,11.60
2023-11-19T11:14:26.906Z,11.60
2023-11-19T11:17:13.856Z,11.60
2023-11-19T11:19:59.191Z,11.60
2023-11-19T11:23:22.234Z,11.60
2023-11-19T11:26:24.649Z,11.50
2023-11-19T11:29:32.809Z,11.50
2023-11-19T11:32:21.243Z,11.50
2023-11-19T11:35:48.345Z,11.40
2023-11-19T11:38:39.797Z,11.40
2023-11-19T11:41:29.633Z,11.50
2023-11-19T11:44:15.688Z,11.60
2023-11-19T11:47:01.608Z,11.70
2023-11-19T11:49:47.785Z,11.70
2023-11-19T11:52:33.728Z,11.80
2023-11-19T11:55:19.249Z,11.80
2023-11-19T11:58:06.317Z,11.80
2023-11-19T12:00:52.839Z,11.90
2023-11-19T12:03:39.219Z,12.10
2023-11-19T12:06:24.580Z,12.30
2023-11-19T12:09:10.081Z,12.60
2023-11-19T12:12:21.739Z,12.80
2023-11-19T12:15:12.461Z,12.90
2023-11-19T12:17:57.861Z,12.70
2023-11-19T12:20:43.138Z,12.60
2023-11-19T12:23:32.814Z,12.50
2023-11-19T12:26:38.724Z,12.50
2023-11-19T12:29:24.260Z,12.40
2023-11-19T12:34:57.515Z,12.30
2023-11-19T12:37:48.026Z,12.40
2023-11-19T12:40:33.311Z,12.40
2023-11-19T12:43:24.875Z,12.30
2023-11-19T12:46:27.676Z,12.30
2023-11-19T12:49:13.328Z,12.30
2023-11-19T12:51:59.151Z,12.40
2023-11-19T12:54:44.779Z,12.30
2023-11-19T12:57:43.453Z,12.20
2023-11-19T13:00:29.356Z,12.20
2023-11-19T13:03:31.616Z,12.20
2023-11-19T13:06:17.289Z,12.30
2023-11-19T13:09:02.320Z,12.70
2023-11-19T13:11:47.817Z,12.90
2023-11-19T13:14:39.608Z,13.20
2023-11-19T13:17:25.139Z,13.30
2023-11-19T13:20:12.303Z,13.30
2023-11-19T13:23:02.919Z,13.20
2023-11-19T13:25:48.160Z,13.20
2023-11-19T13:28:33.661Z,13.00
2023-11-19T13:31:19.211Z,13.00
2023-11-19T13:34:04.539Z,13.00
2023-11-19T13:36:50.143Z,13.10
2023-11-19T13:39:35.711Z,12.90
2023-11-19T13:42:21.365Z,12.80
2023-11-19T13:45:11.841Z,12.80
2023-11-19T13:47:57.472Z,12.80
2023-11-19T13:50:43.295Z,12.80
2023-11-19T13:53:28.921Z,12.80
2023-11-19T13:56:14.332Z,12.80
2023-11-19T13:58:59.817Z,12.70
2023-11-19T14:01:45.612Z,12.70
2023-11-19T14:04:30.951Z,12.80
2023-11-19T14:07:16.395Z,12.80
2023-11-19T14:10:02.355Z,12.60
2023-11-19T14:12:47.852Z,12.50
2023-11-19T14:15:33.483Z,12.50
2023-11-19T14:18:19.233Z,12.30
2023-11-19T14:21:04.937Z,12.30
2023-11-19T14:23:50.385Z,12.40
2023-11-19T14:26:36.121Z,12.40
2023-11-19T14:29:21.582Z,12.40
2023-11-19T14:32:07.506Z,12.30
2023-11-19T14:34:52.615Z,12.30
2023-11-19T14:37:38.252Z,12.30
2023-11-19T14:43:27.363Z,12.30
2023-11-19T14:46:13.005Z,12.30
2023-11-19T14:48:58.563Z,12.30
2023-11-19T14:51:44.424Z,12.10
2023-11-19T14:54:30.326Z,12.10
2023-11-19T14:57:15.940Z,12.00
2023-11-19T15:00:02.477Z,11.90
2023-11-19T15:02:48.034Z,11.70
2023-11-19T15:05:33.387Z,11.60
2023-11-19T15:08:19.622Z,11.60
2023-11-19T15:11:07.736Z,11.50
2023-11-19T15:13:53.427Z,11.50
2023-11-19T15:16:38.854Z,11.50
2023-11-19T15:19:24.542Z,11.60
2023-11-19T15:22:12.447Z,11.70
2023-11-19T15:24:57.725Z,11.80
2023-11-19T15:27:43.177Z,11.80
2023-11-19T15:30:28.674Z,11.90
2023-11-19T15:33:14.239Z,11.90
2023-11-19T15:36:01.511Z,11.90
2023-11-19T15:41:36.527Z,12.10
2023-11-19T15:44:22.196Z,12.10
2023-11-19T15:47:08.283Z,12.20
2023-11-19T15:49:53.703Z,12.10
2023-11-19T15:52:39.743Z,12.10
2023-11-19T15:55:25.211Z,12.10
2023-11-19T15:58:10.747Z,12.10
2023-11-19T16:00:56.881Z,12.10
2023-11-19T16:06:33.114Z,12.00
2023-11-19T16:09:20.236Z,11.90
2023-11-19T16:12:06.049Z,12.00
2023-11-19T16:14:51.596Z,12.00
2023-11-19T16:17:37.124Z,12.00
2023-11-19T16:20:23.430Z,12.10
2023-11-19T16:23:08.453Z,12.00
2023-11-19T16:25:54.461Z,12.00
2023-11-19T16:28:40.636Z,11.90
2023-11-19T16:31:26.006Z,11.90
2023-11-19T16:34:11.970Z,11.90
2023-11-19T16:36:56.981Z,11.90
2023-11-19T16:39:43.417Z,11.80
2023-11-19T16:42:29.022Z,11.80
2023-11-19T16:45:17.160Z,11.70
2023-11-19T16:48:04.528Z,11.60
2023-11-19T16:53:39.163Z,11.50
2023-11-19T16:56:24.638Z,11.50
2023-11-19T16:59:10.225Z,11.40
2023-11-19T17:01:55.938Z,11.40
2023-11-19T17:04:42.088Z,11.30
2023-11-19T17:07:27.279Z,11.30
2023-11-19T17:10:13.286Z,11.20
2023-11-19T17:12:59.011Z,11.20
2023-11-19T17:15:44.491Z,11.20
2023-11-19T17:18:30.239Z,11.20
2023-11-19T17:21:15.662Z,11.10
2023-11-19T17:24:01.103Z,11.00
2023-11-19T17:26:46.741Z,11.00
2023-11-19T17:29:34.527Z,11.00
2023-11-19T17:32:20.041Z,10.90
2023-11-19T17:35:07.130Z,10.90
2023-11-19T17:37:53.803Z,10.90
2023-11-19T17:40:40.210Z,10.90
2023-11-19T17:43:26.229Z,10.90
2023-11-19T17:46:12.386Z,11.00
2023-11-19T17:48:57.806Z,11.00
2023-11-19T17:51:43.651Z,11.10
2023-11-19T17:54:29.742Z,11.10
2023-11-19T17:57:16.261Z,11.10
2023-11-19T18:00:06.389Z,11.10
2023-11-19T18:02:53.267Z,11.10
2023-11-19T18:05:42.215Z,11.10
2023-11-19T18:08:27.663Z,11.20
2023-11-19T18:11:14.563Z,11.20
2023-11-19T18:14:00.957Z,11.20
2023-11-19T18:16:46.362Z,11.10
2023-11-19T18:19:32.036Z,11.10
2023-11-19T18:22:17.146Z,11.00
2023-11-19T18:25:02.682Z,11.00
2023-11-19T18:27:48.564Z,10.90
2023-11-19T18:30:33.792Z,11.00
2023-11-19T18:33:19.316Z,11.10
2023-11-19T18:36:06.347Z,11.00
2023-11-19T18:38:51.802Z,11.10
2023-11-19T18:41:37.814Z,11.10
2023-11-19T18:44:23.202Z,11.10
2023-11-19T18:47:08.766Z,11.10
2023-11-19T18:49:54.576Z,11.10
2023-11-19T18:52:40.281Z,11.10
2023-11-19T18:55:26.099Z,11.10
2023-11-19T18:58:11.699Z,11.20
2023-11-19T19:00:58.041Z,11.20
2023-11-19T19:03:44.008Z,11.10
2023-11-19T19:06:30.504Z,11.10
2023-11-19T19:09:19.564Z,11.10
2023-11-19T19:12:05.241Z,11.10
2023-11-19T19:14:52.753Z,11.10
2023-11-19T19:17:39.348Z,11.10
2023-11-19T19:20:24.859Z,11.00
2023-11-19T19:23:11.448Z,11.10
2023-11-19T19:25:56.635Z,11.00
2023-11-19T19:28:42.067Z,11.10
2023-11-19T19:31:28.369Z,11.00
2023-11-19T19:34:13.508Z,11.00
2023-11-19T19:36:59.246Z,11.00
2023-11-19T19:39:44.668Z,11.00
2023-11-19T19:42:30.169Z,11.00
2023-11-19T19:45:15.897Z,10.90
2023-11-19T19:48:01.479Z,10.90
2023-11-19T19:50:47.422Z,10.90
2023-11-19T19:53:32.690Z,10.90
2023-11-19T19:56:18.415Z,11.00
2023-11-19T19:59:04.697Z,10.90
2023-11-19T20:01:52.518Z,10.90
2023-11-19T20:04:58.109Z,10.90
2023-11-19T20:07:45.829Z,10.80
2023-11-19T20:10:33.315Z,10.80
2023-11-19T20:13:18.842Z,10.80
2023-11-19T20:16:04.316Z,10.80
2023-11-19T20:18:49.433Z,10.80
2023-11-19T20:21:36.884Z,10.70
2023-11-19T20:24:22.551Z,10.70
2023-11-19T20:27:08.832Z,10.70
2023-11-19T20:29:54.442Z,10.70
2023-11-19T20:32:39.704Z,10.70
2023-11-19T20:35:25.383Z,10.60
2023-11-19T20:38:10.706Z,10.60
2023-11-19T20:40:56.243Z,10.60
2023-11-19T20:43:41.764Z,10.60
2023-11-19T20:46:27.158Z,10.60
2023-11-19T20:49:12.875Z,10.50
2023-11-19T20:51:58.097Z,10.50
2023-11-19T20:54:43.611Z,10.50
2023-11-19T20:57:29.045Z,10.40
2023-11-19T21:00:14.857Z,10.30
2023-11-19T21:03:00.195Z,10.20
2023-11-19T21:05:47.501Z,10.20
2023-11-19T21:08:32.877Z,10.20
2023-11-19T21:11:18.935Z,10.20
2023-11-19T21:14:04.552Z,10.20
2023-11-19T21:16:50.002Z,10.20
2023-11-19T21:22:23.367Z,10.20
2023-11-19T21:25:09.410Z,10.30
2023-11-19T21:27:55.022Z,10.10
2023-11-19T21:30:41.098Z,10.10
2023-11-19T21:33:27.293Z,10.20
2023-11-19T21:36:12.857Z,10.10
2023-11-19T21:38:58.373Z,10.10
2023-11-19T21:41:43.894Z,10.10
2023-11-19T21:44:29.216Z,10.20
2023-11-19T21:47:15.149Z,10.10
2023-11-19T21:50:02.248Z,10.10
2023-11-19T21:52:47.725Z,10.00
2023-11-19T21:55:33.718Z,10.10
2023-11-19T21:58:18.832Z,10.10
2023-11-19T22:01:05.909Z,10.10
2023-11-19T22:03:51.248Z,10.10
2023-11-19T22:06:36.801Z,10.10
2023-11-19T22:09:22.966Z,10.20
2023-11-19T22:12:11.249Z,10.30
2023-11-19T22:14:56.422Z,10.30
2023-11-19T22:17:41.916Z,10.30
2023-11-19T22:20:29.310Z,10.30
2023-11-19T22:23:14.766Z,10.30
2023-11-19T22:26:00.321Z,10.40
2023-11-19T22:28:45.567Z,10.30
2023-11-19T22:31:37.446Z,10.30
2023-11-19T22:34:22.790Z,10.40
2023-11-19T22:37:08.370Z,10.40
2023-11-19T22:39:54.097Z,10.30
2023-11-19T22:42:39.956Z,10.40
2023-11-19T22:45:25.357Z,10.30
2023-11-19T22:48:10.833Z,10.40
2023-11-19T22:50:57.059Z,10.40
2023-11-19T22:53:42.301Z,10.50
2023-11-19T22:56:27.640Z,10.50
2023-11-19T22:59:15.003Z,10.50
2023-11-19T23:02:00.965Z,10.50
2023-11-19T23:04:46.519Z,10.50
2023-11-19T23:07:31.960Z,10.50
2023-11-19T23:10:17.511Z,10.60
2023-11-19T23:13:02.921Z,10.60
2023-11-19T23:15:48.314Z,10.60
2023-11-19T23:18:33.726Z,10.40
2023-11-19T23:21:20.321Z,10.50
2023-11-19T23:24:05.999Z,10.40
2023-11-19T23:26:51.317Z,10.40
2023-11-19T23:29:36.780Z,10.40
2023-11-19T23:32:22.522Z,10.40
2023-11-19T23:35:10.657Z,10.40
2023-11-19T23:37:57.591Z,10.30
2023-11-19T23:40:42.888Z,10.20
2023-11-19T23:43:28.303Z,10.30
2023-11-19T23:46:13.840Z,10.40
2023-11-19T23:49:00.013Z,10.30
2023-11-19T23:51:46.448Z,10.40
2023-11-19T23:54:32.256Z,10.50
2023-11-19T23:57:17.624Z,10.50
